AirNav   Free Bose QuietComfort 20
 
 1440 users online  

3PN4 UPMC Jameson Heliport
New Castle, Pennsylvania, USA

GOING TO NEW CASTLE?


FAA INFORMATION EFFECTIVE 05 DECEMBER 2019

Location

FAA Identifier: 3PN4
Lat/Long: 41-00-45.6700N 080-21-06.1600W
41-00.761167N 080-21.102667W
41.0126861,-80.3517111
(estimated)
Elevation: 954 ft. / 291 m (estimated)
Variation: 09W (2000)
From city: 2 miles N of NEW CASTLE, PA
Time zone: UTC -5 (UTC -4 during Daylight Saving Time)
Zip code: 16105

Heliport Operations

Heliport use: Private use. Permission required prior to landing
Activation date: 08/1977
Control tower: no
ARTCC: CLEVELAND CENTER
FSS: ALTOONA FLIGHT SERVICE STATION
Attendance: UNATNDD
Wind indicator: lighted
Segmented circle: yes
Lights: FOR HELI LGTS CALL 412-658-9001.

Heliport Communications

WX AWOS-3PT at UCP (2.9 nm W): 124.175 ((724) 652-4184)
WX AWOS-3PT at BVI (15 nm S): 118.35 (724-843-1024)
WX AWOS-3PT at PJC (15 nm SE): 118.45 (724-452-5304)

Nearby radio navigation aids

VOR radial/distance  VOR name  Freq  Var
EWCr339/12.9ELLWOOD CITY VOR/DME115.8008W
YNGr148/24.0YOUNGSTOWN VORTAC109.0005W
FKLr227/(33.9)FRANKLIN VOR109.6006W
ACOr102/38.9AKRON VOR/DME114.4004W

 
NDB name  Hdg/Dist  Freq  Var  ID
CASTLE111/3.027209WUCP ..- -.-. .--.

Heliport Services

Runway Information

Helipad H1

Dimensions: 44 x 44 ft. / 13 x 13 m
Surface: concrete, in fair condition
Runway edge lights: PERI
Latitude: 41-00.761167N
Longitude: 080-21.102667W
Elevation: 954.0 ft.
Traffic pattern: leftleft
Obstructions: bldg, marked, 301 ft. from runway

Heliport Ownership and Management from official FAA records

Ownership: Privately-owned
Owner: UPMC JAMESON
1211 WILMINGTON AVENUE
NEW CASTLE, PA 16105-2595
Phone (724) 658-9001
Manager: VINCE CARDELLA
1211 WILMINGTON AVENUE
NEW CASTLE, PA 16105-2595
Phone (724) 656-4054

Additional Remarks

FOR CD CTC YOUNGSTOWN APCH AT 330-856-4806, WHEN APCH CLSD CTC CLEVELAND ARTCC AT 440-774-0490.

Instrument Procedures

There are no published instrument procedures at 3PN4.

Some nearby airports with instrument procedures:

KUCP - New Castle Municipal Airport (3 nm W)
29D - Grove City Airport (12 nm NE)
KBVI - Beaver County Airport (15 nm S)
4G4 - Youngstown Elser Metro Airport (15 nm W)
KPJC - Zelienople Municipal Airport (15 nm SE)
 
Loc | Ops | Rwys | IFR | FBO | Links
Com | Nav | Svcs | Stats | Notes
Aerial photo
No photo
 
Airport distance calculator
Flying to UPMC Jameson Heliport? Find the distance to fly.

From to 3PN4

Sunrise and sunset
Times for 09-Dec-2019
 Local
(UTC-5)
 Zulu
(UTC)
Morning civil twilight07:0512:05
Sunrise07:3612:36
Sunset16:5221:52
Evening civil twilight17:2322:23

Current date and time
Zulu (UTC)  09-Dec-2019 19:19:50
Local (UTC-5)  09-Dec-2019 14:19:50
 
METAR
KUCP 
3nm W 
091856Z AUTO 20008KT 160V250 10SM -RA BKN012 BKN016 OVC047 11/09 A2961 RMK AO2 SLP043 P0003 T01060094
KBVI 
15nm S 
091855Z AUTO 19010G15KT 10SM DZ OVC009 11/10 A2962 RMK AO2 T01070095
KPJC 
15nm SE 
091855Z AUTO 00000KT 10SM RA BKN010 OVC016 10/10 A2963 RMK AO2 P0001
TAF
KBVI 
15nm S 
091740Z 0918/1018 18012KT 3SM -RA BR OVC004 WS020/22045KT FM100100 22012KT 5SM -SHRA OVC009 WS020/23045KT FM100600 25012G19KT 6SM -SHRA OVC015 FM101300 27012G19KT P6SM OVC015
NOTAMs
Click for the latest NOTAMs
NOTAMs are issued by the DoD/FAA and will open in a separate window not controlled by AirNav.

 

 
 

Would you like to see your business listed on this page?

 If your business provides an interesting product or service to pilots, flight crews, aircraft, or users of the UPMC Jameson Heliport, you should consider listing it here.  To start the listing process, click on the button below
 
Add a business
 

Other Pages about UPMC Jameson Heliport

Update a link
 
Copyright © AirNav, LLC. All rights reserved. Privacy Policy  Contact